sensor_id;sensor_type;location;lat;lon;timestamp;P1;durP1;ratioP1;P2;durP2;ratioP2
16689;SDS011;8458;52.220;9.884;2024-03-02T00:00:29;12.73;;;11.93;;
16689;SDS011;8458;52.220;9.884;2024-03-02T00:02:56;13.20;;;12.33;;
16689;SDS011;8458;52.220;9.884;2024-03-02T00:05:23;13.47;;;12.57;;
16689;SDS011;8458;52.220;9.884;2024-03-02T00:07:52;12.57;;;11.77;;
16689;SDS011;8458;52.220;9.884;2024-03-02T00:10:21;12.57;;;11.83;;
16689;SDS011;8458;52.220;9.884;2024-03-02T00:12:50;12.37;;;11.57;;
16689;SDS011;8458;52.220;9.884;2024-03-02T00:15:35;14.13;;;13.00;;
16689;SDS011;8458;52.220;9.884;2024-03-02T00:18:08;13.13;;;12.23;;
16689;SDS011;8458;52.220;9.884;2024-03-02T00:20:37;13.43;;;12.53;;
16689;SDS011;8458;52.220;9.884;2024-03-02T00:23:04;13.40;;;12.57;;
16689;SDS011;8458;52.220;9.884;2024-03-02T00:25:36;13.43;;;12.63;;
16689;SDS011;8458;52.220;9.884;2024-03-02T00:28:05;14.87;;;13.87;;
16689;SDS011;8458;52.220;9.884;2024-03-02T00:30:40;14.70;;;13.60;;
16689;SDS011;8458;52.220;9.884;2024-03-02T00:33:25;14.40;;;13.47;;
16689;SDS011;8458;52.220;9.884;2024-03-02T00:35:53;14.17;;;13.10;;
16689;SDS011;8458;52.220;9.884;2024-03-02T00:38:20;14.73;;;13.73;;
16689;SDS011;8458;52.220;9.884;2024-03-02T00:40:47;15.33;;;14.33;;
16689;SDS011;8458;52.220;9.884;2024-03-02T00:43:21;15.30;;;14.13;;
16689;SDS011;8458;52.220;9.884;2024-03-02T00:46:07;15.33;;;14.30;;
16689;SDS011;8458;52.220;9.884;2024-03-02T00:48:35;15.57;;;14.43;;
16689;SDS011;8458;52.220;9.884;2024-03-02T00:51:02;14.90;;;13.80;;
16689;SDS011;8458;52.220;9.884;2024-03-02T00:53:29;15.70;;;14.60;;
16689;SDS011;8458;52.220;9.884;2024-03-02T00:55:56;14.87;;;13.83;;
16689;SDS011;8458;52.220;9.884;2024-03-02T00:58:22;15.20;;;14.20;;
16689;SDS011;8458;52.220;9.884;2024-03-02T01:00:49;16.13;;;15.03;;
16689;SDS011;8458;52.220;9.884;2024-03-02T01:03:16;15.40;;;14.30;;
16689;SDS011;8458;52.220;9.884;2024-03-02T01:05:45;15.57;;;14.37;;
16689;SDS011;8458;52.220;9.884;2024-03-02T01:08:11;17.00;;;15.77;;
16689;SDS011;8458;52.220;9.884;2024-03-02T01:10:38;15.67;;;14.53;;
16689;SDS011;8458;52.220;9.884;2024-03-02T01:13:04;15.63;;;14.63;;
16689;SDS011;8458;52.220;9.884;2024-03-02T01:15:31;16.47;;;15.37;;
16689;SDS011;8458;52.220;9.884;2024-03-02T01:17:58;15.57;;;14.47;;
16689;SDS011;8458;52.220;9.884;2024-03-02T01:20:24;17.10;;;16.00;;
16689;SDS011;8458;52.220;9.884;2024-03-02T01:22:53;16.27;;;15.17;;
16689;SDS011;8458;52.220;9.884;2024-03-02T01:25:20;16.77;;;15.67;;
16689;SDS011;8458;52.220;9.884;2024-03-02T01:27:46;15.43;;;14.33;;
16689;SDS011;8458;52.220;9.884;2024-03-02T01:30:13;17.00;;;15.80;;
16689;SDS011;8458;52.220;9.884;2024-03-02T01:32:40;17.10;;;16.00;;
16689;SDS011;8458;52.220;9.884;2024-03-02T01:35:06;16.93;;;15.83;;
16689;SDS011;8458;52.220;9.884;2024-03-02T01:37:34;17.67;;;16.33;;
16689;SDS011;8458;52.220;9.884;2024-03-02T01:40:02;16.90;;;15.80;;
16689;SDS011;8458;52.220;9.884;2024-03-02T01:42:33;16.20;;;15.10;;
16689;SDS011;8458;52.220;9.884;2024-03-02T01:45:00;16.53;;;15.43;;
16689;SDS011;8458;52.220;9.884;2024-03-02T01:47:27;16.73;;;15.53;;
16689;SDS011;8458;52.220;9.884;2024-03-02T01:49:53;16.57;;;15.47;;
16689;SDS011;8458;52.220;9.884;2024-03-02T01:52:20;15.90;;;14.80;;
16689;SDS011;8458;52.220;9.884;2024-03-02T01:54:46;16.33;;;15.23;;
16689;SDS011;8458;52.220;9.884;2024-03-02T01:57:14;15.80;;;14.70;;
16689;SDS011;8458;52.220;9.884;2024-03-02T01:59:40;15.57;;;14.57;;
16689;SDS011;8458;52.220;9.884;2024-03-02T02:02:07;16.20;;;15.10;;
16689;SDS011;8458;52.220;9.884;2024-03-02T02:04:34;16.17;;;15.07;;
16689;SDS011;8458;52.220;9.884;2024-03-02T02:07:00;15.27;;;14.27;;
16689;SDS011;8458;52.220;9.884;2024-03-02T02:09:27;15.53;;;14.53;;
16689;SDS011;8458;52.220;9.884;2024-03-02T02:11:53;16.13;;;15.07;;
16689;SDS011;8458;52.220;9.884;2024-03-02T02:14:21;15.30;;;14.30;;
16689;SDS011;8458;52.220;9.884;2024-03-02T02:16:47;16.67;;;15.57;;
16689;SDS011;8458;52.220;9.884;2024-03-02T02:19:14;16.53;;;15.23;;
16689;SDS011;8458;52.220;9.884;2024-03-02T02:21:43;16.73;;;15.60;;
16689;SDS011;8458;52.220;9.884;2024-03-02T02:24:09;16.23;;;15.07;;
16689;SDS011;8458;52.220;9.884;2024-03-02T02:26:38;16.50;;;15.37;;
16689;SDS011;8458;52.220;9.884;2024-03-02T02:29:04;17.60;;;16.40;;
16689;SDS011;8458;52.220;9.884;2024-03-02T02:31:36;17.27;;;16.07;;
16689;SDS011;8458;52.220;9.884;2024-03-02T02:34:03;16.97;;;15.87;;
16689;SDS011;8458;52.220;9.884;2024-03-02T02:36:29;16.67;;;15.47;;
16689;SDS011;8458;52.220;9.884;2024-03-02T02:38:57;16.50;;;15.40;;
16689;SDS011;8458;52.220;9.884;2024-03-02T02:41:28;17.20;;;15.60;;
16689;SDS011;8458;52.220;9.884;2024-03-02T02:43:54;17.53;;;16.33;;
16689;SDS011;8458;52.220;9.884;2024-03-02T02:46:21;17.37;;;16.17;;
16689;SDS011;8458;52.220;9.884;2024-03-02T02:48:47;16.80;;;15.70;;
16689;SDS011;8458;52.220;9.884;2024-03-02T02:51:14;16.57;;;15.40;;
16689;SDS011;8458;52.220;9.884;2024-03-02T02:53:41;16.83;;;15.67;;
16689;SDS011;8458;52.220;9.884;2024-03-02T02:56:09;16.97;;;15.87;;
16689;SDS011;8458;52.220;9.884;2024-03-02T02:58:35;17.10;;;15.90;;
16689;SDS011;8458;52.220;9.884;2024-03-02T03:01:02;16.80;;;15.63;;
16689;SDS011;8458;52.220;9.884;2024-03-02T03:03:29;16.67;;;15.57;;
16689;SDS011;8458;52.220;9.884;2024-03-02T03:05:55;14.87;;;13.87;;
16689;SDS011;8458;52.220;9.884;2024-03-02T03:08:22;16.67;;;15.57;;
16689;SDS011;8458;52.220;9.884;2024-03-02T03:10:49;17.10;;;15.40;;
16689;SDS011;8458;52.220;9.884;2024-03-02T03:13:17;16.53;;;15.40;;
16689;SDS011;8458;52.220;9.884;2024-03-02T03:15:43;16.27;;;14.97;;
16689;SDS011;8458;52.220;9.884;2024-03-02T03:18:10;16.47;;;15.20;;
16689;SDS011;8458;52.220;9.884;2024-03-02T03:20:36;17.00;;;15.63;;
16689;SDS011;8458;52.220;9.884;2024-03-02T03:23:03;17.10;;;15.70;;
16689;SDS011;8458;52.220;9.884;2024-03-02T03:25:30;16.73;;;15.63;;
16689;SDS011;8458;52.220;9.884;2024-03-02T03:27:56;16.03;;;14.93;;
16689;SDS011;8458;52.220;9.884;2024-03-02T03:30:24;16.47;;;15.37;;
16689;SDS011;8458;52.220;9.884;2024-03-02T03:32:50;15.37;;;14.37;;
16689;SDS011;8458;52.220;9.884;2024-03-02T03:35:17;14.53;;;13.63;;
16689;SDS011;8458;52.220;9.884;2024-03-02T03:37:43;15.73;;;14.73;;
16689;SDS011;8458;52.220;9.884;2024-03-02T03:40:10;15.57;;;14.57;;
16689;SDS011;8458;52.220;9.884;2024-03-02T03:42:39;15.07;;;13.97;;
16689;SDS011;8458;52.220;9.884;2024-03-02T03:45:05;15.43;;;14.33;;
16689;SDS011;8458;52.220;9.884;2024-03-02T03:47:34;14.40;;;13.40;;
16689;SDS011;8458;52.220;9.884;2024-03-02T03:50:01;14.70;;;13.70;;
16689;SDS011;8458;52.220;9.884;2024-03-02T03:52:32;14.03;;;12.93;;
16689;SDS011;8458;52.220;9.884;2024-03-02T03:54:58;14.43;;;13.43;;
16689;SDS011;8458;52.220;9.884;2024-03-02T03:57:25;15.17;;;14.27;;
16689;SDS011;8458;52.220;9.884;2024-03-02T03:59:51;70.77;;;47.50;;
16689;SDS011;8458;52.220;9.884;2024-03-02T04:02:17;15.20;;;14.07;;
16689;SDS011;8458;52.220;9.884;2024-03-02T04:04:45;17.17;;;15.97;;
16689;SDS011;8458;52.220;9.884;2024-03-02T04:07:12;18.53;;;17.17;;
16689;SDS011;8458;52.220;9.884;2024-03-02T04:09:38;17.37;;;15.97;;
16689;SDS011;8458;52.220;9.884;2024-03-02T04:12:05;17.83;;;16.60;;
16689;SDS011;8458;52.220;9.884;2024-03-02T04:14:31;18.07;;;16.77;;
16689;SDS011;8458;52.220;9.884;2024-03-02T04:16:58;22.50;;;20.73;;
16689;SDS011;8458;52.220;9.884;2024-03-02T04:19:25;23.17;;;21.40;;
16689;SDS011;8458;52.220;9.884;2024-03-02T04:21:53;21.23;;;19.63;;
16689;SDS011;8458;52.220;9.884;2024-03-02T04:24:19;15.20;;;14.10;;
16689;SDS011;8458;52.220;9.884;2024-03-02T04:26:46;15.43;;;14.43;;
16689;SDS011;8458;52.220;9.884;2024-03-02T04:29:12;14.57;;;13.57;;
16689;SDS011;8458;52.220;9.884;2024-03-02T04:31:38;15.20;;;14.10;;
16689;SDS011;8458;52.220;9.884;2024-03-02T04:34:05;15.50;;;14.33;;
16689;SDS011;8458;52.220;9.884;2024-03-02T04:36:31;14.90;;;13.97;;
16689;SDS011;8458;52.220;9.884;2024-03-02T04:38:59;14.67;;;13.67;;
16689;SDS011;8458;52.220;9.884;2024-03-02T04:41:26;15.30;;;14.20;;
16689;SDS011;8458;52.220;9.884;2024-03-02T04:43:52;15.53;;;14.53;;
16689;SDS011;8458;52.220;9.884;2024-03-02T04:46:19;16.50;;;15.40;;
16689;SDS011;8458;52.220;9.884;2024-03-02T04:48:45;16.67;;;15.37;;
16689;SDS011;8458;52.220;9.884;2024-03-02T04:51:13;16.13;;;14.73;;
16689;SDS011;8458;52.220;9.884;2024-03-02T04:53:40;17.27;;;16.07;;
16689;SDS011;8458;52.220;9.884;2024-03-02T04:56:07;56.97;;;34.20;;
16689;SDS011;8458;52.220;9.884;2024-03-02T04:59:04;40.87;;;31.27;;
16689;SDS011;8458;52.220;9.884;2024-03-02T05:01:31;22.83;;;21.13;;
16689;SDS011;8458;52.220;9.884;2024-03-02T05:03:57;20.27;;;18.97;;
16689;SDS011;8458;52.220;9.884;2024-03-02T05:06:24;19.33;;;18.03;;
16689;SDS011;8458;52.220;9.884;2024-03-02T05:08:50;18.87;;;17.67;;
16689;SDS011;8458;52.220;9.884;2024-03-02T05:11:18;18.63;;;17.43;;
16689;SDS011;8458;52.220;9.884;2024-03-02T05:14:02;18.03;;;16.93;;
16689;SDS011;8458;52.220;9.884;2024-03-02T05:16:29;17.70;;;16.60;;
16689;SDS011;8458;52.220;9.884;2024-03-02T05:18:58;17.60;;;16.40;;
16689;SDS011;8458;52.220;9.884;2024-03-02T05:21:25;17.67;;;16.47;;
16689;SDS011;8458;52.220;9.884;2024-03-02T05:23:51;17.07;;;15.97;;
16689;SDS011;8458;52.220;9.884;2024-03-02T05:26:19;17.47;;;16.13;;
16689;SDS011;8458;52.220;9.884;2024-03-02T05:28:45;17.73;;;16.47;;
16689;SDS011;8458;52.220;9.884;2024-03-02T05:31:12;18.00;;;16.43;;
16689;SDS011;8458;52.220;9.884;2024-03-02T05:33:41;16.73;;;15.63;;
16689;SDS011;8458;52.220;9.884;2024-03-02T05:36:08;18.80;;;17.40;;
16689;SDS011;8458;52.220;9.884;2024-03-02T05:38:34;17.97;;;16.77;;
16689;SDS011;8458;52.220;9.884;2024-03-02T05:41:01;18.80;;;17.50;;
16689;SDS011;8458;52.220;9.884;2024-03-02T05:43:29;18.13;;;16.73;;
16689;SDS011;8458;52.220;9.884;2024-03-02T05:45:56;18.93;;;17.63;;
16689;SDS011;8458;52.220;9.884;2024-03-02T05:48:22;19.37;;;18.07;;
16689;SDS011;8458;52.220;9.884;2024-03-02T05:50:49;19.27;;;17.97;;
16689;SDS011;8458;52.220;9.884;2024-03-02T05:53:15;19.37;;;17.97;;
16689;SDS011;8458;52.220;9.884;2024-03-02T05:55:41;18.90;;;17.60;;
16689;SDS011;8458;52.220;9.884;2024-03-02T05:58:08;18.30;;;17.00;;
16689;SDS011;8458;52.220;9.884;2024-03-02T06:00:49;18.67;;;17.37;;
16689;SDS011;8458;52.220;9.884;2024-03-02T06:03:15;19.30;;;17.90;;
16689;SDS011;8458;52.220;9.884;2024-03-02T06:05:41;19.10;;;17.70;;
16689;SDS011;8458;52.220;9.884;2024-03-02T06:08:08;19.13;;;17.80;;
16689;SDS011;8458;52.220;9.884;2024-03-02T06:10:34;18.40;;;17.20;;
16689;SDS011;8458;52.220;9.884;2024-03-02T06:13:01;19.10;;;17.60;;
16689;SDS011;8458;52.220;9.884;2024-03-02T06:15:27;18.07;;;16.77;;
16689;SDS011;8458;52.220;9.884;2024-03-02T06:17:55;19.63;;;18.23;;
16689;SDS011;8458;52.220;9.884;2024-03-02T06:20:21;18.77;;;17.47;;
16689;SDS011;8458;52.220;9.884;2024-03-02T06:22:48;19.07;;;17.67;;
16689;SDS011;8458;52.220;9.884;2024-03-02T06:25:14;18.23;;;16.93;;
16689;SDS011;8458;52.220;9.884;2024-03-02T06:27:41;17.97;;;16.67;;
16689;SDS011;8458;52.220;9.884;2024-03-02T06:30:08;17.23;;;15.97;;
16689;SDS011;8458;52.220;9.884;2024-03-02T06:32:35;16.63;;;15.53;;
16689;SDS011;8458;52.220;9.884;2024-03-02T06:35:03;17.90;;;16.70;;
16689;SDS011;8458;52.220;9.884;2024-03-02T06:37:30;17.47;;;16.07;;
16689;SDS011;8458;52.220;9.884;2024-03-02T06:39:57;18.80;;;17.40;;
16689;SDS011;8458;52.220;9.884;2024-03-02T06:42:23;18.50;;;17.30;;
16689;SDS011;8458;52.220;9.884;2024-03-02T06:44:50;17.40;;;16.20;;
16689;SDS011;8458;52.220;9.884;2024-03-02T06:47:16;17.90;;;16.60;;
16689;SDS011;8458;52.220;9.884;2024-03-02T06:49:43;17.20;;;16.10;;
16689;SDS011;8458;52.220;9.884;2024-03-02T06:52:10;16.70;;;15.60;;
16689;SDS011;8458;52.220;9.884;2024-03-02T06:54:37;17.73;;;16.57;;
16689;SDS011;8458;52.220;9.884;2024-03-02T06:57:03;18.03;;;16.80;;
16689;SDS011;8458;52.220;9.884;2024-03-02T06:59:30;17.40;;;16.27;;
16689;SDS011;8458;52.220;9.884;2024-03-02T07:01:56;17.13;;;16.03;;
16689;SDS011;8458;52.220;9.884;2024-03-02T07:04:23;17.00;;;15.87;;
16689;SDS011;8458;52.220;9.884;2024-03-02T07:06:49;17.60;;;16.30;;
16689;SDS011;8458;52.220;9.884;2024-03-02T07:09:17;17.50;;;16.13;;
16689;SDS011;8458;52.220;9.884;2024-03-02T07:11:47;17.90;;;16.80;;
16689;SDS011;8458;52.220;9.884;2024-03-02T07:14:14;17.30;;;16.20;;
16689;SDS011;8458;52.220;9.884;2024-03-02T07:16:40;17.40;;;16.20;;
16689;SDS011;8458;52.220;9.884;2024-03-02T07:19:08;17.37;;;16.17;;
16689;SDS011;8458;52.220;9.884;2024-03-02T07:21:34;17.10;;;16.00;;
16689;SDS011;8458;52.220;9.884;2024-03-02T07:24:01;17.30;;;16.10;;
16689;SDS011;8458;52.220;9.884;2024-03-02T07:26:30;17.90;;;16.67;;
16689;SDS011;8458;52.220;9.884;2024-03-02T07:28:57;18.07;;;16.87;;
16689;SDS011;8458;52.220;9.884;2024-03-02T07:31:23;16.57;;;15.47;;
16689;SDS011;8458;52.220;9.884;2024-03-02T07:33:50;17.33;;;16.03;;
16689;SDS011;8458;52.220;9.884;2024-03-02T07:36:16;17.20;;;16.10;;
16689;SDS011;8458;52.220;9.884;2024-03-02T07:38:44;16.70;;;15.60;;
16689;SDS011;8458;52.220;9.884;2024-03-02T07:41:10;16.53;;;15.43;;
16689;SDS011;8458;52.220;9.884;2024-03-02T07:43:39;15.83;;;14.83;;
16689;SDS011;8458;52.220;9.884;2024-03-02T07:46:05;15.07;;;13.87;;
16689;SDS011;8458;52.220;9.884;2024-03-02T07:48:32;17.23;;;16.03;;
16689;SDS011;8458;52.220;9.884;2024-03-02T07:50:58;17.20;;;15.93;;
16689;SDS011;8458;52.220;9.884;2024-03-02T07:53:25;16.60;;;15.40;;
16689;SDS011;8458;52.220;9.884;2024-03-02T07:55:51;16.30;;;15.30;;
16689;SDS011;8458;52.220;9.884;2024-03-02T07:58:18;15.33;;;14.23;;
16689;SDS011;8458;52.220;9.884;2024-03-02T08:00:47;15.73;;;14.73;;
16689;SDS011;8458;52.220;9.884;2024-03-02T08:03:14;16.20;;;15.03;;
16689;SDS011;8458;52.220;9.884;2024-03-02T08:05:41;15.60;;;14.50;;
16689;SDS011;8458;52.220;9.884;2024-03-02T08:08:07;14.50;;;13.47;;
16689;SDS011;8458;52.220;9.884;2024-03-02T08:10:34;15.40;;;14.33;;
16689;SDS011;8458;52.220;9.884;2024-03-02T08:13:00;15.60;;;14.50;;
16689;SDS011;8458;52.220;9.884;2024-03-02T08:15:27;14.77;;;13.87;;
16689;SDS011;8458;52.220;9.884;2024-03-02T08:17:55;15.17;;;14.23;;
16689;SDS011;8458;52.220;9.884;2024-03-02T08:20:21;14.93;;;13.93;;
16689;SDS011;8458;52.220;9.884;2024-03-02T08:22:48;15.63;;;14.63;;
16689;SDS011;8458;52.220;9.884;2024-03-02T08:25:14;15.67;;;14.67;;
16689;SDS011;8458;52.220;9.884;2024-03-02T08:27:41;14.77;;;13.77;;
16689;SDS011;8458;52.220;9.884;2024-03-02T08:30:09;15.40;;;14.37;;
16689;SDS011;8458;52.220;9.884;2024-03-02T08:32:36;15.60;;;14.40;;
16689;SDS011;8458;52.220;9.884;2024-03-02T08:35:05;15.20;;;14.17;;
16689;SDS011;8458;52.220;9.884;2024-03-02T08:37:32;16.13;;;15.07;;
16689;SDS011;8458;52.220;9.884;2024-03-02T08:39:59;15.30;;;14.27;;
16689;SDS011;8458;52.220;9.884;2024-03-02T08:42:25;15.23;;;14.23;;
16689;SDS011;8458;52.220;9.884;2024-03-02T08:44:52;15.57;;;14.57;;
16689;SDS011;8458;52.220;9.884;2024-03-02T08:47:19;15.67;;;14.67;;
16689;SDS011;8458;52.220;9.884;2024-03-02T08:49:45;15.07;;;14.07;;
16689;SDS011;8458;52.220;9.884;2024-03-02T08:52:13;15.90;;;14.87;;
16689;SDS011;8458;52.220;9.884;2024-03-02T08:54:39;14.80;;;13.80;;
16689;SDS011;8458;52.220;9.884;2024-03-02T08:57:06;14.67;;;13.57;;
16689;SDS011;8458;52.220;9.884;2024-03-02T08:59:33;14.70;;;13.73;;
16689;SDS011;8458;52.220;9.884;2024-03-02T09:01:59;13.97;;;13.03;;
16689;SDS011;8458;52.220;9.884;2024-03-02T09:04:26;14.23;;;13.23;;
16689;SDS011;8458;52.220;9.884;2024-03-02T09:06:53;14.00;;;13.03;;
16689;SDS011;8458;52.220;9.884;2024-03-02T09:09:21;12.83;;;11.83;;
16689;SDS011;8458;52.220;9.884;2024-03-02T09:11:47;13.53;;;12.53;;
16689;SDS011;8458;52.220;9.884;2024-03-02T09:14:14;13.73;;;12.83;;
16689;SDS011;8458;52.220;9.884;2024-03-02T09:16:41;12.50;;;11.70;;
16689;SDS011;8458;52.220;9.884;2024-03-02T09:19:07;12.47;;;11.67;;
16689;SDS011;8458;52.220;9.884;2024-03-02T09:21:34;12.50;;;11.67;;
16689;SDS011;8458;52.220;9.884;2024-03-02T09:24:01;11.87;;;11.07;;
16689;SDS011;8458;52.220;9.884;2024-03-02T09:26:30;12.17;;;11.43;;
16689;SDS011;8458;52.220;9.884;2024-03-02T09:28:56;12.93;;;11.87;;
16689;SDS011;8458;52.220;9.884;2024-03-02T09:31:23;11.60;;;10.70;;
16689;SDS011;8458;52.220;9.884;2024-03-02T09:33:49;11.93;;;11.13;;
16689;SDS011;8458;52.220;9.884;2024-03-02T09:36:19;11.80;;;10.83;;
16689;SDS011;8458;52.220;9.884;2024-03-02T09:38:46;11.20;;;10.50;;
16689;SDS011;8458;52.220;9.884;2024-03-02T09:41:13;11.23;;;10.53;;
16689;SDS011;8458;52.220;9.884;2024-03-02T09:43:41;11.07;;;10.37;;
16689;SDS011;8458;52.220;9.884;2024-03-02T09:46:08;11.70;;;10.90;;
16689;SDS011;8458;52.220;9.884;2024-03-02T09:48:35;10.70;;;10.00;;
16689;SDS011;8458;52.220;9.884;2024-03-02T09:51:02;10.17;;;9.50;;
16689;SDS011;8458;52.220;9.884;2024-03-02T09:53:31;10.80;;;10.10;;
16689;SDS011;8458;52.220;9.884;2024-03-02T09:55:58;10.43;;;9.73;;
16689;SDS011;8458;52.220;9.884;2024-03-02T09:58:25;10.03;;;9.37;;
16689;SDS011;8458;52.220;9.884;2024-03-02T10:00:53;10.37;;;9.53;;
16689;SDS011;8458;52.220;9.884;2024-03-02T10:03:19;10.93;;;10.23;;
16689;SDS011;8458;52.220;9.884;2024-03-02T10:05:46;10.53;;;9.83;;
16689;SDS011;8458;52.220;9.884;2024-03-02T10:08:13;9.47;;;8.83;;
16689;SDS011;8458;52.220;9.884;2024-03-02T10:10:39;9.97;;;9.27;;
16689;SDS011;8458;52.220;9.884;2024-03-02T10:13:08;9.97;;;9.20;;
16689;SDS011;8458;52.220;9.884;2024-03-02T10:15:35;9.60;;;8.90;;
16689;SDS011;8458;52.220;9.884;2024-03-02T10:18:04;9.30;;;8.50;;
16689;SDS011;8458;52.220;9.884;2024-03-02T10:20:30;8.30;;;7.70;;
16689;SDS011;8458;52.220;9.884;2024-03-02T10:23:09;8.93;;;8.33;;
16689;SDS011;8458;52.220;9.884;2024-03-02T10:25:36;8.80;;;8.20;;
16689;SDS011;8458;52.220;9.884;2024-03-02T10:28:03;8.57;;;8.07;;
16689;SDS011;8458;52.220;9.884;2024-03-02T10:30:31;8.70;;;8.00;;
16689;SDS011;8458;52.220;9.884;2024-03-02T10:32:58;8.83;;;8.23;;
16689;SDS011;8458;52.220;9.884;2024-03-02T10:35:26;8.80;;;8.20;;
16689;SDS011;8458;52.220;9.884;2024-03-02T10:37:52;8.30;;;7.70;;
16689;SDS011;8458;52.220;9.884;2024-03-02T10:40:21;8.67;;;8.07;;
16689;SDS011;8458;52.220;9.884;2024-03-02T10:42:47;8.53;;;7.83;;
16689;SDS011;8458;52.220;9.884;2024-03-02T10:45:15;8.90;;;8.30;;
16689;SDS011;8458;52.220;9.884;2024-03-02T10:47:45;8.83;;;8.13;;
16689;SDS011;8458;52.220;9.884;2024-03-02T10:50:13;8.07;;;7.53;;
16689;SDS011;8458;52.220;9.884;2024-03-02T10:52:41;7.80;;;7.20;;
16689;SDS011;8458;52.220;9.884;2024-03-02T10:55:08;8.40;;;7.87;;
16689;SDS011;8458;52.220;9.884;2024-03-02T10:57:40;7.80;;;7.30;;
16689;SDS011;8458;52.220;9.884;2024-03-02T11:00:10;8.57;;;8.07;;
16689;SDS011;8458;52.220;9.884;2024-03-02T11:02:40;9.73;;;9.00;;
16689;SDS011;8458;52.220;9.884;2024-03-02T11:05:12;8.40;;;7.90;;
16689;SDS011;8458;52.220;9.884;2024-03-02T11:07:46;7.60;;;7.00;;
16689;SDS011;8458;52.220;9.884;2024-03-02T11:10:13;7.93;;;7.23;;
16689;SDS011;8458;52.220;9.884;2024-03-02T11:12:43;7.67;;;7.17;;
16689;SDS011;8458;52.220;9.884;2024-03-02T11:15:19;7.37;;;6.87;;
16689;SDS011;8458;52.220;9.884;2024-03-02T11:17:47;7.03;;;6.53;;
16689;SDS011;8458;52.220;9.884;2024-03-02T11:20:15;6.90;;;6.50;;
16689;SDS011;8458;52.220;9.884;2024-03-02T11:22:44;7.23;;;6.73;;
16689;SDS011;8458;52.220;9.884;2024-03-02T11:25:24;7.30;;;6.80;;
16689;SDS011;8458;52.220;9.884;2024-03-02T11:28:03;6.80;;;6.40;;
16689;SDS011;8458;52.220;9.884;2024-03-02T11:30:49;7.33;;;6.83;;
16689;SDS011;8458;52.220;9.884;2024-03-02T11:33:23;6.97;;;6.47;;
16689;SDS011;8458;52.220;9.884;2024-03-02T11:35:52;6.97;;;6.47;;
16689;SDS011;8458;52.220;9.884;2024-03-02T11:38:19;7.17;;;6.67;;
16689;SDS011;8458;52.220;9.884;2024-03-02T11:40:47;5.93;;;5.53;;
16689;SDS011;8458;52.220;9.884;2024-03-02T11:43:13;5.90;;;5.40;;
16689;SDS011;8458;52.220;9.884;2024-03-02T11:45:41;5.03;;;4.63;;
16689;SDS011;8458;52.220;9.884;2024-03-02T11:48:09;5.33;;;4.97;;
16689;SDS011;8458;52.220;9.884;2024-03-02T11:50:39;5.00;;;4.60;;
16689;SDS011;8458;52.220;9.884;2024-03-02T11:53:07;5.00;;;4.70;;
16689;SDS011;8458;52.220;9.884;2024-03-02T11:55:35;5.20;;;4.90;;
16689;SDS011;8458;52.220;9.884;2024-03-02T11:58:03;5.23;;;4.83;;
16689;SDS011;8458;52.220;9.884;2024-03-02T12:00:30;5.13;;;4.73;;
16689;SDS011;8458;52.220;9.884;2024-03-02T12:02:59;5.53;;;5.13;;
16689;SDS011;8458;52.220;9.884;2024-03-02T12:05:27;5.17;;;4.60;;
16689;SDS011;8458;52.220;9.884;2024-03-02T12:07:55;4.90;;;4.60;;
16689;SDS011;8458;52.220;9.884;2024-03-02T12:10:22;4.97;;;4.57;;
16689;SDS011;8458;52.220;9.884;2024-03-02T12:12:54;5.00;;;4.60;;
16689;SDS011;8458;52.220;9.884;2024-03-02T12:15:24;4.97;;;4.57;;
16689;SDS011;8458;52.220;9.884;2024-03-02T12:17:54;4.53;;;4.23;;
16689;SDS011;8458;52.220;9.884;2024-03-02T12:20:21;5.33;;;4.83;;
16689;SDS011;8458;52.220;9.884;2024-03-02T12:22:49;6.53;;;6.03;;
16689;SDS011;8458;52.220;9.884;2024-03-02T12:25:17;6.50;;;5.97;;
16689;SDS011;8458;52.220;9.884;2024-03-02T12:27:44;6.03;;;5.53;;
16689;SDS011;8458;52.220;9.884;2024-03-02T12:30:19;5.60;;;5.20;;
16689;SDS011;8458;52.220;9.884;2024-03-02T12:32:47;6.13;;;5.73;;
16689;SDS011;8458;52.220;9.884;2024-03-02T12:35:14;6.50;;;5.90;;
16689;SDS011;8458;52.220;9.884;2024-03-02T12:37:44;6.50;;;6.00;;
16689;SDS011;8458;52.220;9.884;2024-03-02T12:40:11;6.33;;;5.93;;
16689;SDS011;8458;52.220;9.884;2024-03-02T12:42:38;5.83;;;5.43;;
16689;SDS011;8458;52.220;9.884;2024-03-02T12:45:05;5.30;;;4.93;;
16689;SDS011;8458;52.220;9.884;2024-03-02T12:47:34;5.03;;;4.73;;
16689;SDS011;8458;52.220;9.884;2024-03-02T12:50:01;5.37;;;5.00;;
16689;SDS011;8458;52.220;9.884;2024-03-02T12:52:28;4.73;;;4.40;;
16689;SDS011;8458;52.220;9.884;2024-03-02T12:54:55;5.40;;;4.90;;
16689;SDS011;8458;52.220;9.884;2024-03-02T12:57:25;5.17;;;4.77;;
16689;SDS011;8458;52.220;9.884;2024-03-02T12:59:52;4.93;;;4.63;;
16689;SDS011;8458;52.220;9.884;2024-03-02T13:02:18;5.63;;;5.23;;
16689;SDS011;8458;52.220;9.884;2024-03-02T13:04:53;4.90;;;4.60;;
16689;SDS011;8458;52.220;9.884;2024-03-02T13:07:20;4.70;;;4.40;;
16689;SDS011;8458;52.220;9.884;2024-03-02T13:09:47;4.60;;;4.20;;
16689;SDS011;8458;52.220;9.884;2024-03-02T13:12:14;4.63;;;4.23;;
16689;SDS011;8458;52.220;9.884;2024-03-02T13:14:41;4.20;;;3.83;;
16689;SDS011;8458;52.220;9.884;2024-03-02T13:17:07;3.90;;;3.60;;
16689;SDS011;8458;52.220;9.884;2024-03-02T13:19:34;3.73;;;3.53;;
16689;SDS011;8458;52.220;9.884;2024-03-02T13:22:02;3.90;;;3.60;;
16689;SDS011;8458;52.220;9.884;2024-03-02T13:24:28;3.57;;;3.27;;
16689;SDS011;8458;52.220;9.884;2024-03-02T13:26:55;3.20;;;2.90;;
16689;SDS011;8458;52.220;9.884;2024-03-02T13:29:23;2.90;;;2.70;;
16689;SDS011;8458;52.220;9.884;2024-03-02T13:31:50;2.93;;;2.73;;
16689;SDS011;8458;52.220;9.884;2024-03-02T13:34:17;3.00;;;2.80;;
16689;SDS011;8458;52.220;9.884;2024-03-02T13:36:44;2.57;;;2.33;;
16689;SDS011;8458;52.220;9.884;2024-03-02T13:39:12;2.30;;;2.10;;
16689;SDS011;8458;52.220;9.884;2024-03-02T13:41:40;3.67;;;2.37;;
16689;SDS011;8458;52.220;9.884;2024-03-02T13:44:07;2.70;;;2.50;;
16689;SDS011;8458;52.220;9.884;2024-03-02T13:46:33;2.77;;;2.40;;
16689;SDS011;8458;52.220;9.884;2024-03-02T13:49:00;2.50;;;2.30;;
16689;SDS011;8458;52.220;9.884;2024-03-02T13:51:27;2.23;;;2.07;;
16689;SDS011;8458;52.220;9.884;2024-03-02T13:53:53;4.37;;;2.17;;
16689;SDS011;8458;52.220;9.884;2024-03-02T13:56:21;2.40;;;2.20;;
16689;SDS011;8458;52.220;9.884;2024-03-02T13:58:48;2.60;;;2.40;;
16689;SDS011;8458;52.220;9.884;2024-03-02T14:01:15;1.80;;;1.70;;
16689;SDS011;8458;52.220;9.884;2024-03-02T14:03:41;2.20;;;2.00;;
16689;SDS011;8458;52.220;9.884;2024-03-02T14:06:08;2.47;;;2.27;;
16689;SDS011;8458;52.220;9.884;2024-03-02T14:08:34;2.67;;;2.47;;
16689;SDS011;8458;52.220;9.884;2024-03-02T14:11:01;3.30;;;3.10;;
16689;SDS011;8458;52.220;9.884;2024-03-02T14:13:28;4.03;;;3.73;;
16689;SDS011;8458;52.220;9.884;2024-03-02T14:15:55;3.77;;;3.47;;
16689;SDS011;8458;52.220;9.884;2024-03-02T14:18:23;3.60;;;3.30;;
16689;SDS011;8458;52.220;9.884;2024-03-02T14:20:49;4.07;;;3.77;;
16689;SDS011;8458;52.220;9.884;2024-03-02T14:23:17;3.33;;;3.03;;
16689;SDS011;8458;52.220;9.884;2024-03-02T14:25:44;3.50;;;3.30;;
16689;SDS011;8458;52.220;9.884;2024-03-02T14:28:11;4.17;;;3.80;;
16689;SDS011;8458;52.220;9.884;2024-03-02T14:30:39;4.03;;;3.73;;
16689;SDS011;8458;52.220;9.884;2024-03-02T14:33:05;4.03;;;3.73;;
16689;SDS011;8458;52.220;9.884;2024-03-02T14:35:32;4.23;;;3.50;;
16689;SDS011;8458;52.220;9.884;2024-03-02T14:37:58;3.77;;;3.57;;
16689;SDS011;8458;52.220;9.884;2024-03-02T14:40:25;3.57;;;3.37;;
16689;SDS011;8458;52.220;9.884;2024-03-02T14:42:54;3.47;;;3.17;;
16689;SDS011;8458;52.220;9.884;2024-03-02T14:45:20;3.20;;;3.00;;